Columbus, Ohio
Traffic Map
Current Weather Conditions
Columbus, Ohio
Scattered Clouds
Scattered Clouds
33°
Feels Like: 34°
Wind Chill: 33° Ceiling: Unl
Heat Index: 34° Visibility: 10mi
Dew Point: 18° Wind: 8mph
Humidity: 42% Direction: 230° (SW)
Pressure: 30.07in Gusts: 0mph
Raw Report DataKCMH 221851Z 23007KT 10SM FEW050 SCT075 33/18 A3007 RMK AO2 SLP173 T03280183
Traffic Incident Summary
Active as of:
Severity:
Category:
InformationThere was an issue retrieving the traffic information for this location. Please try a different location or try again shortly.
Advertisements
Track Severe Weather on mobile